createdAt,value
2022-10-07T00:01:53.000Z,7.35
2022-10-07T00:06:51.869Z,7.30
2022-10-07T00:11:51.978Z,7.78
2022-10-07T00:16:50.744Z,8.02
2022-10-07T00:21:49.488Z,7.90
2022-10-07T00:26:48.200Z,9.40
2022-10-07T00:31:48.307Z,5.22
2022-10-07T00:36:50.170Z,4.63
2022-10-07T00:41:51.336Z,4.88
2022-10-07T00:46:52.352Z,5.25
2022-10-07T00:51:53.145Z,5.75
2022-10-07T00:56:53.681Z,4.20
2022-10-07T01:01:53.793Z,3.97
2022-10-07T01:06:52.580Z,4.40
2022-10-07T01:11:59.151Z,4.20
2022-10-07T01:17:06.004Z,4.45
2022-10-07T01:22:17.762Z,4.75
2022-10-07T01:27:20.109Z,4.95
2022-10-07T01:32:27.007Z,4.50
2022-10-07T01:37:29.734Z,3.90
2022-10-07T01:42:30.892Z,3.92
2022-10-07T01:47:30.180Z,3.40
2022-10-07T01:52:45.146Z,3.00
2022-10-07T01:57:54.488Z,2.97
2022-10-07T02:03:26.262Z,2.63
2022-10-07T02:08:33.801Z,3.03
2022-10-07T02:13:39.526Z,3.40
2022-10-07T02:18:45.401Z,3.22
2022-10-07T02:23:47.642Z,4.45
2022-10-07T02:28:50.729Z,3.30
2022-10-07T02:33:53.275Z,3.50
2022-10-07T02:38:53.769Z,3.22
2022-10-07T02:43:59.481Z,3.78
2022-10-07T02:49:00.798Z,3.08
2022-10-07T02:54:03.490Z,3.85
2022-10-07T02:59:07.116Z,4.22
2022-10-07T03:04:07.325Z,5.47
2022-10-07T03:09:07.038Z,5.38
2022-10-07T03:14:07.897Z,4.22
2022-10-07T03:19:07.317Z,4.85
2022-10-07T03:24:14.317Z,4.40
2022-10-07T03:29:18.907Z,3.33
2022-10-07T03:34:18.246Z,3.35
2022-10-07T03:39:19.682Z,3.60
2022-10-07T03:44:22.562Z,3.60
2022-10-07T03:49:22.765Z,3.80
2022-10-07T03:54:21.738Z,4.47
2022-10-07T03:59:22.147Z,4.57
2022-10-07T04:04:22.162Z,5.78
2022-10-07T04:09:21.011Z,5.05
2022-10-07T04:14:26.896Z,5.60
2022-10-07T04:19:28.105Z,5.32
2022-10-07T04:24:27.271Z,6.85
2022-10-07T04:29:28.883Z,5.38
2022-10-07T04:34:27.798Z,4.38
2022-10-07T04:39:42.838Z,4.97
2022-10-07T04:44:47.071Z,5.18
2022-10-07T04:49:46.229Z,7.10
2022-10-07T04:54:45.075Z,5.82
2022-10-07T04:59:43.819Z,6.25
2022-10-07T05:04:50.255Z,6.07
2022-10-07T05:09:49.695Z,6.70
2022-10-07T05:14:48.484Z,7.80
2022-10-07T05:19:50.075Z,6.55
2022-10-07T05:24:48.879Z,5.90
2022-10-07T05:29:47.799Z,6.10
2022-10-07T05:34:46.843Z,5.90
2022-10-07T05:39:47.490Z,4.90
2022-10-07T05:44:50.606Z,4.78
2022-10-07T05:49:51.091Z,4.80
2022-10-07T05:54:51.999Z,5.07
2022-10-07T05:59:52.897Z,4.85
2022-10-07T06:04:53.520Z,4.57
2022-10-07T06:10:11.317Z,6.68
2022-10-07T06:15:12.280Z,5.40
2022-10-07T06:20:15.249Z,5.85
2022-10-07T06:25:16.789Z,6.57
2022-10-07T06:30:17.142Z,6.27
2022-10-07T06:35:16.129Z,7.25
2022-10-07T06:40:16.675Z,6.95
2022-10-07T06:45:15.899Z,6.97
2022-10-07T06:50:15.206Z,8.25
2022-10-07T06:55:17.670Z,7.28
2022-10-07T07:00:16.915Z,8.90
2022-10-07T07:05:17.230Z,5.82
2022-10-07T07:10:19.386Z,6.30
2022-10-07T07:15:23.121Z,4.97
2022-10-07T07:20:22.075Z,6.65
2022-10-07T07:25:22.783Z,8.15
2022-10-07T07:30:24.399Z,8.18
2022-10-07T07:35:25.563Z,6.72
2022-10-07T07:40:26.416Z,7.07
2022-10-07T07:45:26.490Z,8.10
2022-10-07T07:50:27.318Z,6.55
2022-10-07T07:55:29.494Z,6.93
2022-10-07T08:00:28.432Z,6.70
2022-10-07T08:05:36.046Z,6.22
2022-10-07T08:10:37.250Z,6.72
2022-10-07T08:15:36.176Z,6.28
2022-10-07T08:20:36.044Z,6.72
2022-10-07T08:25:37.873Z,5.97
2022-10-07T08:30:38.657Z,5.22
2022-10-07T08:35:37.973Z,5.72
2022-10-07T08:40:38.559Z,4.35
2022-10-07T08:45:37.421Z,4.78
2022-10-07T08:50:47.216Z,5.15
2022-10-07T08:55:51.680Z,4.65
2022-10-07T09:00:56.967Z,4.80
2022-10-07T09:05:57.554Z,5.30
2022-10-07T09:11:15.845Z,4.85
2022-10-07T09:16:19.616Z,5.30
2022-10-07T09:21:23.637Z,4.80
2022-10-07T09:26:24.077Z,4.68
2022-10-07T09:31:26.161Z,5.15
2022-10-07T09:36:26.279Z,6.13
2022-10-07T09:41:32.070Z,5.10
2022-10-07T09:46:37.573Z,4.88
2022-10-07T09:51:36.368Z,5.75
2022-10-07T09:56:39.599Z,4.60
2022-10-07T10:01:41.900Z,5.47
2022-10-07T10:06:47.264Z,4.88
2022-10-07T10:11:47.742Z,4.00
2022-10-07T10:21:53.104Z,4.68
2022-10-07T10:27:07.429Z,3.15
2022-10-07T10:32:25.405Z,3.78
2022-10-07T10:37:34.011Z,5.53
2022-10-07T10:42:48.692Z,4.00
2022-10-07T10:48:03.437Z,4.53
2022-10-07T10:53:15.012Z,3.97
2022-10-07T10:58:28.063Z,3.55
2022-10-07T11:03:51.607Z,3.05
2022-10-07T11:08:52.852Z,2.72
2022-10-07T11:13:57.850Z,3.00
2022-10-07T11:18:59.327Z,3.58
2022-10-07T11:24:04.896Z,3.42
2022-10-07T11:29:13.944Z,2.90
2022-10-07T11:34:18.602Z,3.03
2022-10-07T11:39:17.391Z,2.28
2022-10-07T11:44:23.648Z,2.50
2022-10-07T11:49:29.645Z,2.60
2022-10-07T11:54:32.919Z,2.88
2022-10-07T11:59:46.047Z,2.72
2022-10-07T12:04:44.774Z,3.22
2022-10-07T12:09:57.221Z,3.97
2022-10-07T12:15:04.725Z,4.63
2022-10-07T12:20:45.256Z,3.95
2022-10-07T12:25:47.013Z,4.57
2022-10-07T12:30:53.914Z,5.20
2022-10-07T12:35:54.539Z,5.82
2022-10-07T12:41:03.539Z,6.63
2022-10-07T12:46:07.461Z,4.40
2022-10-07T12:51:13.777Z,4.30
2022-10-07T12:56:21.114Z,3.65
2022-10-07T13:01:32.910Z,2.55
2022-10-07T13:07:03.515Z,2.47
2022-10-07T13:12:14.044Z,3.13
2022-10-07T13:17:30.823Z,2.15
2022-10-07T13:22:31.515Z,3.13
2022-10-07T13:27:34.786Z,2.63
2022-10-07T13:32:36.460Z,3.03
2022-10-07T13:37:37.238Z,2.42
2022-10-07T13:42:38.363Z,3.00
2022-10-07T13:47:38.432Z,2.78
2022-10-07T13:52:40.993Z,2.78
2022-10-07T13:57:44.324Z,2.88
2022-10-07T14:02:45.304Z,2.60
2022-10-07T14:07:44.297Z,3.28
2022-10-07T14:12:46.415Z,3.08
2022-10-07T14:17:49.735Z,2.40
2022-10-07T14:22:51.283Z,3.90
2022-10-07T14:28:07.770Z,3.45
2022-10-07T14:33:31.315Z,4.15
2022-10-07T14:38:30.337Z,3.63
2022-10-07T14:43:31.937Z,4.07
2022-10-07T14:48:32.200Z,3.63
2022-10-07T14:53:31.126Z,4.07
2022-10-07T14:58:29.888Z,4.28
2022-10-07T15:03:29.525Z,4.88
2022-10-07T15:08:30.322Z,5.40
2022-10-07T15:13:29.279Z,4.78
2022-10-07T15:18:27.941Z,5.45
2022-10-07T15:23:28.460Z,4.30
2022-10-07T15:28:29.642Z,6.03
2022-10-07T15:33:28.630Z,5.15
2022-10-07T15:38:27.916Z,5.53
2022-10-07T15:43:28.459Z,6.40
2022-10-07T15:48:28.698Z,5.72
2022-10-07T15:53:27.406Z,6.97
2022-10-07T15:58:30.478Z,5.22
2022-10-07T16:03:33.555Z,6.13
2022-10-07T16:08:33.047Z,11.65
2022-10-07T16:13:36.767Z,11.60
2022-10-07T16:18:37.114Z,9.73
2022-10-07T16:23:37.562Z,6.55
2022-10-07T16:28:57.871Z,10.50
2022-10-07T16:33:57.088Z,10.80
2022-10-07T16:38:59.748Z,7.22
2022-10-07T16:44:01.232Z,5.45
2022-10-07T16:49:00.762Z,17.25
2022-10-07T16:54:02.993Z,19.75
2022-10-07T16:59:06.320Z,10.45
2022-10-07T17:04:05.318Z,9.32
2022-10-07T17:09:05.390Z,8.02
2022-10-07T17:14:07.590Z,7.35
2022-10-07T17:19:07.346Z,7.20
2022-10-07T17:24:06.551Z,7.35
2022-10-07T17:29:08.831Z,7.13
2022-10-07T17:34:08.498Z,7.85
2022-10-07T17:39:07.740Z,7.90
2022-10-07T17:44:10.473Z,8.73
2022-10-07T17:49:11.638Z,19.42
2022-10-07T17:54:12.487Z,13.25
2022-10-07T17:59:12.672Z,8.57
2022-10-07T18:04:14.979Z,9.05
2022-10-07T18:09:18.284Z,14.13
2022-10-07T18:14:36.073Z,14.45
2022-10-07T18:19:35.058Z,10.68
2022-10-07T18:24:33.928Z,10.75
2022-10-07T18:29:36.143Z,14.10
2022-10-07T18:39:33.387Z,9.30
2022-10-07T18:44:33.892Z,8.77
2022-10-07T18:49:32.656Z,9.43
2022-10-07T18:54:31.319Z,8.32
2022-10-07T18:59:30.058Z,14.38
2022-10-07T19:04:31.001Z,13.00
2022-10-07T19:09:30.211Z,10.65
2022-10-07T19:14:32.204Z,9.35
2022-10-07T19:19:34.260Z,8.75
2022-10-07T19:24:46.801Z,11.02
2022-10-07T19:29:45.446Z,9.05
2022-10-07T19:34:45.507Z,15.52
2022-10-07T19:39:44.211Z,11.60
2022-10-07T19:44:43.371Z,9.25
2022-10-07T19:49:42.138Z,9.73
2022-10-07T19:54:45.859Z,12.23
2022-10-07T19:59:49.704Z,9.45
2022-10-07T20:04:49.071Z,8.93
2022-10-07T20:09:49.341Z,7.93
2022-10-07T20:14:48.040Z,7.85
2022-10-07T20:19:46.749Z,8.35
2022-10-07T20:24:45.453Z,8.88
2022-10-07T20:29:58.206Z,7.95
2022-10-07T20:34:56.920Z,8.52
2022-10-07T20:40:12.834Z,8.95
2022-10-07T20:45:12.866Z,9.60
2022-10-07T20:50:11.898Z,9.48
2022-10-07T20:55:14.185Z,8.30
2022-10-07T21:00:17.184Z,11.05
2022-10-07T21:05:16.002Z,9.60
2022-10-07T21:10:14.863Z,9.27
2022-10-07T21:15:15.067Z,9.45
2022-10-07T21:20:13.866Z,10.95
2022-10-07T21:25:13.107Z,9.52
2022-10-07T21:30:12.581Z,10.05
2022-10-07T21:35:12.688Z,10.38
2022-10-07T21:40:11.635Z,9.43
2022-10-07T21:45:11.229Z,9.23
2022-10-07T21:50:11.351Z,10.82
2022-10-07T21:55:11.763Z,9.38
2022-10-07T22:00:12.370Z,9.13
2022-10-07T22:05:11.687Z,10.38
2022-10-07T22:10:12.085Z,10.35
2022-10-07T22:15:12.013Z,11.15
2022-10-07T22:20:11.045Z,10.48
2022-10-07T22:25:11.301Z,10.48
2022-10-07T22:30:11.340Z,10.75
2022-10-07T22:35:30.324Z,11.60
2022-10-07T22:40:30.553Z,9.90
2022-10-07T22:45:29.251Z,10.23
2022-10-07T22:50:27.896Z,9.70
2022-10-07T22:55:27.218Z,10.10
2022-10-07T23:00:27.395Z,11.10
2022-10-07T23:05:26.139Z,10.20
2022-10-07T23:10:24.782Z,10.10
2022-10-07T23:15:23.536Z,10.10
2022-10-07T23:20:25.665Z,10.75
2022-10-07T23:25:26.397Z,9.45
2022-10-07T23:30:25.197Z,9.90
2022-10-07T23:35:25.327Z,12.13
2022-10-07T23:40:24.135Z,11.23
2022-10-07T23:45:22.741Z,9.68
2022-10-07T23:50:22.211Z,9.65
2022-10-07T23:55:22.413Z,10.80
